sensor_id;sensor_type;location;lat;lon;timestamp;P1;durP1;ratioP1;P2;durP2;ratioP2
1082;SDS011;530;51.448;7.238;2024-03-29T00:02:04;2.50;;;0.90;;
1082;SDS011;530;51.448;7.238;2024-03-29T00:04:30;2.57;;;0.93;;
1082;SDS011;530;51.448;7.238;2024-03-29T00:06:55;1.07;;;0.70;;
1082;SDS011;530;51.448;7.238;2024-03-29T00:09:21;1.50;;;0.73;;
1082;SDS011;530;51.448;7.238;2024-03-29T00:11:47;2.80;;;0.97;;
1082;SDS011;530;51.448;7.238;2024-03-29T00:14:12;1.47;;;0.93;;
1082;SDS011;530;51.448;7.238;2024-03-29T00:16:38;1.13;;;0.60;;
1082;SDS011;530;51.448;7.238;2024-03-29T00:19:04;2.80;;;0.90;;
1082;SDS011;530;51.448;7.238;2024-03-29T00:21:30;2.70;;;1.33;;
1082;SDS011;530;51.448;7.238;2024-03-29T00:23:56;1.43;;;0.93;;
1082;SDS011;530;51.448;7.238;2024-03-29T00:26:21;2.00;;;0.60;;
1082;SDS011;530;51.448;7.238;2024-03-29T00:28:47;2.70;;;1.00;;
1082;SDS011;530;51.448;7.238;2024-03-29T00:31:13;3.50;;;1.00;;
1082;SDS011;530;51.448;7.238;2024-03-29T00:33:38;2.13;;;0.97;;
1082;SDS011;530;51.448;7.238;2024-03-29T00:36:04;2.57;;;0.90;;
1082;SDS011;530;51.448;7.238;2024-03-29T00:38:30;1.20;;;0.80;;
1082;SDS011;530;51.448;7.238;2024-03-29T00:40:56;1.63;;;0.77;;
1082;SDS011;530;51.448;7.238;2024-03-29T00:43:21;2.40;;;0.73;;
1082;SDS011;530;51.448;7.238;2024-03-29T00:45:47;2.27;;;0.90;;
1082;SDS011;530;51.448;7.238;2024-03-29T00:48:13;1.40;;;0.80;;
1082;SDS011;530;51.448;7.238;2024-03-29T00:50:40;0.93;;;0.50;;
1082;SDS011;530;51.448;7.238;2024-03-29T00:53:06;2.20;;;0.77;;
1082;SDS011;530;51.448;7.238;2024-03-29T00:55:31;1.27;;;0.67;;
1082;SDS011;530;51.448;7.238;2024-03-29T00:57:57;1.40;;;0.70;;
1082;SDS011;530;51.448;7.238;2024-03-29T01:00:23;4.33;;;1.10;;
1082;SDS011;530;51.448;7.238;2024-03-29T01:02:48;2.00;;;0.80;;
1082;SDS011;530;51.448;7.238;2024-03-29T01:05:14;2.90;;;0.70;;
1082;SDS011;530;51.448;7.238;2024-03-29T01:07:40;1.27;;;0.67;;
1082;SDS011;530;51.448;7.238;2024-03-29T01:10:07;1.33;;;0.70;;
1082;SDS011;530;51.448;7.238;2024-03-29T01:12:34;2.30;;;0.80;;
1082;SDS011;530;51.448;7.238;2024-03-29T01:15:04;2.67;;;0.80;;
1082;SDS011;530;51.448;7.238;2024-03-29T01:17:31;2.90;;;0.77;;
1082;SDS011;530;51.448;7.238;2024-03-29T01:19:57;2.20;;;0.67;;
1082;SDS011;530;51.448;7.238;2024-03-29T01:22:22;2.40;;;0.70;;
1082;SDS011;530;51.448;7.238;2024-03-29T01:24:48;3.63;;;0.93;;
1082;SDS011;530;51.448;7.238;2024-03-29T01:27:14;1.43;;;0.70;;
1082;SDS011;530;51.448;7.238;2024-03-29T01:29:39;0.87;;;0.60;;
1082;SDS011;530;51.448;7.238;2024-03-29T01:32:05;3.97;;;0.77;;
1082;SDS011;530;51.448;7.238;2024-03-29T01:34:31;4.33;;;0.90;;
1082;SDS011;530;51.448;7.238;2024-03-29T01:36:58;2.70;;;0.77;;
1082;SDS011;530;51.448;7.238;2024-03-29T01:39:23;3.27;;;0.80;;
1082;SDS011;530;51.448;7.238;2024-03-29T01:41:54;3.43;;;0.67;;
1082;SDS011;530;51.448;7.238;2024-03-29T01:44:20;2.40;;;0.83;;
1082;SDS011;530;51.448;7.238;2024-03-29T01:46:45;3.63;;;0.80;;
1082;SDS011;530;51.448;7.238;2024-03-29T01:49:12;1.10;;;0.53;;
1082;SDS011;530;51.448;7.238;2024-03-29T01:51:38;1.30;;;0.70;;
1082;SDS011;530;51.448;7.238;2024-03-29T01:54:05;2.87;;;0.70;;
1082;SDS011;530;51.448;7.238;2024-03-29T01:56:32;2.63;;;0.50;;
1082;SDS011;530;51.448;7.238;2024-03-29T01:59:00;2.10;;;0.70;;
1082;SDS011;530;51.448;7.238;2024-03-29T02:01:29;1.00;;;0.90;;
1082;SDS011;530;51.448;7.238;2024-03-29T02:03:56;3.00;;;0.70;;
1082;SDS011;530;51.448;7.238;2024-03-29T02:06:22;2.60;;;0.80;;
1082;SDS011;530;51.448;7.238;2024-03-29T02:08:49;1.40;;;0.70;;
1082;SDS011;530;51.448;7.238;2024-03-29T02:11:17;2.73;;;0.60;;
1082;SDS011;530;51.448;7.238;2024-03-29T02:13:43;1.53;;;0.60;;
1082;SDS011;530;51.448;7.238;2024-03-29T02:16:09;1.57;;;0.80;;
1082;SDS011;530;51.448;7.238;2024-03-29T02:18:35;2.13;;;0.60;;
1082;SDS011;530;51.448;7.238;2024-03-29T02:21:01;4.77;;;1.70;;
1082;SDS011;530;51.448;7.238;2024-03-29T02:23:27;2.07;;;0.77;;
1082;SDS011;530;51.448;7.238;2024-03-29T02:25:54;2.10;;;0.90;;
1082;SDS011;530;51.448;7.238;2024-03-29T02:28:21;2.60;;;0.80;;
1082;SDS011;530;51.448;7.238;2024-03-29T02:30:47;3.23;;;0.70;;
1082;SDS011;530;51.448;7.238;2024-03-29T02:33:14;2.10;;;0.70;;
1082;SDS011;530;51.448;7.238;2024-03-29T02:35:40;3.07;;;0.80;;
1082;SDS011;530;51.448;7.238;2024-03-29T02:38:05;1.97;;;0.90;;
1082;SDS011;530;51.448;7.238;2024-03-29T02:40:31;1.90;;;0.90;;
1082;SDS011;530;51.448;7.238;2024-03-29T02:42:56;1.43;;;0.60;;
1082;SDS011;530;51.448;7.238;2024-03-29T02:45:22;0.73;;;0.63;;
1082;SDS011;530;51.448;7.238;2024-03-29T02:47:48;2.17;;;0.97;;
1082;SDS011;530;51.448;7.238;2024-03-29T02:50:14;1.43;;;0.60;;
1082;SDS011;530;51.448;7.238;2024-03-29T02:52:41;3.17;;;0.70;;
1082;SDS011;530;51.448;7.238;2024-03-29T02:55:07;3.63;;;1.03;;
1082;SDS011;530;51.448;7.238;2024-03-29T02:57:35;1.10;;;0.80;;
1082;SDS011;530;51.448;7.238;2024-03-29T03:00:04;3.03;;;0.83;;
1082;SDS011;530;51.448;7.238;2024-03-29T03:02:31;1.43;;;0.80;;
1082;SDS011;530;51.448;7.238;2024-03-29T03:04:56;1.93;;;0.60;;
1082;SDS011;530;51.448;7.238;2024-03-29T03:07:22;4.10;;;0.77;;
1082;SDS011;530;51.448;7.238;2024-03-29T03:10:06;2.00;;;0.70;;
1082;SDS011;530;51.448;7.238;2024-03-29T03:12:51;3.93;;;0.80;;
1082;SDS011;530;51.448;7.238;2024-03-29T03:15:16;2.00;;;0.70;;
1082;SDS011;530;51.448;7.238;2024-03-29T03:17:42;2.17;;;1.00;;
1082;SDS011;530;51.448;7.238;2024-03-29T03:20:08;1.70;;;0.60;;
1082;SDS011;530;51.448;7.238;2024-03-29T03:22:34;0.90;;;0.63;;
1082;SDS011;530;51.448;7.238;2024-03-29T03:25:00;0.60;;;0.50;;
1082;SDS011;530;51.448;7.238;2024-03-29T03:27:26;2.00;;;0.80;;
1082;SDS011;530;51.448;7.238;2024-03-29T03:29:51;0.80;;;0.47;;
1082;SDS011;530;51.448;7.238;2024-03-29T03:32:17;2.30;;;0.60;;
1082;SDS011;530;51.448;7.238;2024-03-29T03:34:43;0.80;;;0.50;;
1082;SDS011;530;51.448;7.238;2024-03-29T03:37:08;1.20;;;0.50;;
1082;SDS011;530;51.448;7.238;2024-03-29T03:39:34;0.77;;;0.50;;
1082;SDS011;530;51.448;7.238;2024-03-29T03:42:00;1.37;;;0.50;;
1082;SDS011;530;51.448;7.238;2024-03-29T03:44:25;1.23;;;0.60;;
1082;SDS011;530;51.448;7.238;2024-03-29T03:46:53;2.80;;;0.80;;
1082;SDS011;530;51.448;7.238;2024-03-29T03:49:19;1.33;;;0.83;;
1082;SDS011;530;51.448;7.238;2024-03-29T03:51:45;1.00;;;0.73;;
1082;SDS011;530;51.448;7.238;2024-03-29T03:54:11;2.60;;;0.60;;
1082;SDS011;530;51.448;7.238;2024-03-29T03:56:36;1.20;;;0.50;;
1082;SDS011;530;51.448;7.238;2024-03-29T03:59:02;1.70;;;0.60;;
1082;SDS011;530;51.448;7.238;2024-03-29T04:01:28;1.60;;;0.60;;
1082;SDS011;530;51.448;7.238;2024-03-29T04:03:53;1.20;;;0.53;;
1082;SDS011;530;51.448;7.238;2024-03-29T04:06:19;2.87;;;0.70;;
1082;SDS011;530;51.448;7.238;2024-03-29T04:08:45;1.73;;;0.87;;
1082;SDS011;530;51.448;7.238;2024-03-29T04:11:11;1.40;;;0.50;;
1082;SDS011;530;51.448;7.238;2024-03-29T04:13:37;1.33;;;0.70;;
1082;SDS011;530;51.448;7.238;2024-03-29T04:16:04;2.00;;;0.80;;
1082;SDS011;530;51.448;7.238;2024-03-29T04:18:31;1.90;;;0.70;;
1082;SDS011;530;51.448;7.238;2024-03-29T04:21:00;1.03;;;0.50;;
1082;SDS011;530;51.448;7.238;2024-03-29T04:23:27;1.37;;;0.53;;
1082;SDS011;530;51.448;7.238;2024-03-29T04:25:56;0.90;;;0.70;;
1082;SDS011;530;51.448;7.238;2024-03-29T04:28:23;1.33;;;1.03;;
1082;SDS011;530;51.448;7.238;2024-03-29T04:30:56;3.37;;;1.17;;
1082;SDS011;530;51.448;7.238;2024-03-29T04:33:23;2.20;;;0.93;;
1082;SDS011;530;51.448;7.238;2024-03-29T04:35:51;1.30;;;0.70;;
1082;SDS011;530;51.448;7.238;2024-03-29T04:38:22;1.77;;;0.90;;
1082;SDS011;530;51.448;7.238;2024-03-29T04:40:51;1.20;;;0.83;;
1082;SDS011;530;51.448;7.238;2024-03-29T04:43:18;2.17;;;1.00;;
1082;SDS011;530;51.448;7.238;2024-03-29T04:45:46;0.60;;;0.50;;
1082;SDS011;530;51.448;7.238;2024-03-29T04:48:12;3.33;;;0.90;;
1082;SDS011;530;51.448;7.238;2024-03-29T04:50:38;1.10;;;0.93;;
1082;SDS011;530;51.448;7.238;2024-03-29T04:53:04;1.20;;;1.00;;
1082;SDS011;530;51.448;7.238;2024-03-29T04:55:30;2.60;;;0.83;;
1082;SDS011;530;51.448;7.238;2024-03-29T04:57:56;0.80;;;0.80;;
1082;SDS011;530;51.448;7.238;2024-03-29T05:00:22;1.70;;;0.90;;
1082;SDS011;530;51.448;7.238;2024-03-29T05:02:47;1.97;;;1.20;;
1082;SDS011;530;51.448;7.238;2024-03-29T05:05:13;2.50;;;1.00;;
1082;SDS011;530;51.448;7.238;2024-03-29T05:07:39;3.87;;;0.83;;
1082;SDS011;530;51.448;7.238;2024-03-29T05:10:05;2.80;;;1.00;;
1082;SDS011;530;51.448;7.238;2024-03-29T05:12:34;1.13;;;1.03;;
1082;SDS011;530;51.448;7.238;2024-03-29T05:15:00;2.10;;;0.87;;
1082;SDS011;530;51.448;7.238;2024-03-29T05:17:26;2.17;;;0.83;;
1082;SDS011;530;51.448;7.238;2024-03-29T05:19:53;1.37;;;0.90;;
1082;SDS011;530;51.448;7.238;2024-03-29T05:22:19;1.10;;;0.70;;
1082;SDS011;530;51.448;7.238;2024-03-29T05:24:45;1.13;;;0.93;;
1082;SDS011;530;51.448;7.238;2024-03-29T05:27:14;2.00;;;1.00;;
1082;SDS011;530;51.448;7.238;2024-03-29T05:29:39;4.50;;;1.13;;
1082;SDS011;530;51.448;7.238;2024-03-29T05:32:06;0.90;;;0.80;;
1082;SDS011;530;51.448;7.238;2024-03-29T05:34:32;2.83;;;1.27;;
1082;SDS011;530;51.448;7.238;2024-03-29T05:36:58;3.40;;;1.30;;
1082;SDS011;530;51.448;7.238;2024-03-29T05:39:24;1.07;;;0.90;;
1082;SDS011;530;51.448;7.238;2024-03-29T05:41:49;1.87;;;0.97;;
1082;SDS011;530;51.448;7.238;2024-03-29T05:44:15;5.03;;;1.03;;
1082;SDS011;530;51.448;7.238;2024-03-29T05:46:42;1.40;;;0.87;;
1082;SDS011;530;51.448;7.238;2024-03-29T05:49:07;1.83;;;1.20;;
1082;SDS011;530;51.448;7.238;2024-03-29T05:51:33;3.60;;;1.77;;
1082;SDS011;530;51.448;7.238;2024-03-29T05:53:59;6.17;;;2.00;;
1082;SDS011;530;51.448;7.238;2024-03-29T05:56:25;4.03;;;1.60;;
1082;SDS011;530;51.448;7.238;2024-03-29T05:58:51;1.83;;;1.00;;
1082;SDS011;530;51.448;7.238;2024-03-29T06:01:16;2.00;;;0.90;;
1082;SDS011;530;51.448;7.238;2024-03-29T06:03:42;1.93;;;0.90;;
1082;SDS011;530;51.448;7.238;2024-03-29T06:06:07;2.60;;;1.10;;
1082;SDS011;530;51.448;7.238;2024-03-29T06:08:41;2.00;;;1.00;;
1082;SDS011;530;51.448;7.238;2024-03-29T06:11:06;1.67;;;0.70;;
1082;SDS011;530;51.448;7.238;2024-03-29T06:13:32;2.90;;;1.20;;
1082;SDS011;530;51.448;7.238;2024-03-29T06:16:21;1.60;;;1.00;;
1082;SDS011;530;51.448;7.238;2024-03-29T06:19:08;3.17;;;1.30;;
1082;SDS011;530;51.448;7.238;2024-03-29T06:21:33;2.50;;;1.10;;
1082;SDS011;530;51.448;7.238;2024-03-29T06:26:32;2.37;;;1.40;;
1082;SDS011;530;51.448;7.238;2024-03-29T06:28:59;5.40;;;2.10;;
1082;SDS011;530;51.448;7.238;2024-03-29T06:31:26;2.23;;;1.30;;
1082;SDS011;530;51.448;7.238;2024-03-29T06:33:51;2.50;;;1.10;;
1082;SDS011;530;51.448;7.238;2024-03-29T06:36:17;4.60;;;1.20;;
1082;SDS011;530;51.448;7.238;2024-03-29T06:38:43;2.50;;;1.13;;
1082;SDS011;530;51.448;7.238;2024-03-29T06:41:09;3.00;;;1.40;;
1082;SDS011;530;51.448;7.238;2024-03-29T06:43:35;1.80;;;1.10;;
1082;SDS011;530;51.448;7.238;2024-03-29T06:46:01;1.60;;;1.13;;
1082;SDS011;530;51.448;7.238;2024-03-29T06:48:28;2.50;;;1.30;;
1082;SDS011;530;51.448;7.238;2024-03-29T06:50:57;1.60;;;1.03;;
1082;SDS011;530;51.448;7.238;2024-03-29T06:53:23;2.13;;;1.40;;
1082;SDS011;530;51.448;7.238;2024-03-29T06:55:49;2.83;;;1.30;;
1082;SDS011;530;51.448;7.238;2024-03-29T06:58:15;2.40;;;1.23;;
1082;SDS011;530;51.448;7.238;2024-03-29T07:00:43;2.03;;;1.00;;
1082;SDS011;530;51.448;7.238;2024-03-29T07:03:10;5.97;;;1.30;;
1082;SDS011;530;51.448;7.238;2024-03-29T07:05:36;5.23;;;1.47;;
1082;SDS011;530;51.448;7.238;2024-03-29T07:08:01;1.50;;;1.10;;
1082;SDS011;530;51.448;7.238;2024-03-29T07:10:27;1.87;;;1.30;;
1082;SDS011;530;51.448;7.238;2024-03-29T07:12:53;2.97;;;1.23;;
1082;SDS011;530;51.448;7.238;2024-03-29T07:15:18;2.40;;;1.47;;
1082;SDS011;530;51.448;7.238;2024-03-29T07:17:44;2.43;;;1.27;;
1082;SDS011;530;51.448;7.238;2024-03-29T07:20:10;1.30;;;1.07;;
1082;SDS011;530;51.448;7.238;2024-03-29T07:22:36;1.80;;;1.40;;
1082;SDS011;530;51.448;7.238;2024-03-29T07:25:02;2.93;;;1.37;;
1082;SDS011;530;51.448;7.238;2024-03-29T07:27:27;1.60;;;1.10;;
1082;SDS011;530;51.448;7.238;2024-03-29T07:29:59;5.03;;;1.27;;
1082;SDS011;530;51.448;7.238;2024-03-29T07:32:25;1.63;;;1.10;;
1082;SDS011;530;51.448;7.238;2024-03-29T07:34:50;1.30;;;1.07;;
1082;SDS011;530;51.448;7.238;2024-03-29T07:37:16;1.53;;;1.00;;
1082;SDS011;530;51.448;7.238;2024-03-29T07:39:43;1.37;;;1.03;;
1082;SDS011;530;51.448;7.238;2024-03-29T07:42:09;1.23;;;1.00;;
1082;SDS011;530;51.448;7.238;2024-03-29T07:44:34;2.00;;;1.27;;
1082;SDS011;530;51.448;7.238;2024-03-29T07:47:00;1.50;;;0.77;;
1082;SDS011;530;51.448;7.238;2024-03-29T07:49:26;1.70;;;1.17;;
1082;SDS011;530;51.448;7.238;2024-03-29T07:51:51;2.40;;;1.30;;
1082;SDS011;530;51.448;7.238;2024-03-29T07:54:17;2.50;;;1.80;;
1082;SDS011;530;51.448;7.238;2024-03-29T07:56:42;1.50;;;0.97;;
1082;SDS011;530;51.448;7.238;2024-03-29T07:59:08;1.50;;;1.20;;
1082;SDS011;530;51.448;7.238;2024-03-29T08:01:34;2.23;;;1.07;;
1082;SDS011;530;51.448;7.238;2024-03-29T08:04:00;1.70;;;0.90;;
1082;SDS011;530;51.448;7.238;2024-03-29T08:06:25;2.13;;;1.40;;
1082;SDS011;530;51.448;7.238;2024-03-29T08:08:51;1.40;;;1.00;;
1082;SDS011;530;51.448;7.238;2024-03-29T08:11:17;2.10;;;1.27;;
1082;SDS011;530;51.448;7.238;2024-03-29T08:13:42;1.37;;;0.90;;
1082;SDS011;530;51.448;7.238;2024-03-29T08:16:08;1.10;;;0.90;;
1082;SDS011;530;51.448;7.238;2024-03-29T08:18:34;1.43;;;1.13;;
1082;SDS011;530;51.448;7.238;2024-03-29T08:21:00;1.40;;;1.00;;
1082;SDS011;530;51.448;7.238;2024-03-29T08:23:26;1.77;;;1.17;;
1082;SDS011;530;51.448;7.238;2024-03-29T08:25:52;1.50;;;1.30;;
1082;SDS011;530;51.448;7.238;2024-03-29T08:28:21;1.63;;;1.07;;
1082;SDS011;530;51.448;7.238;2024-03-29T08:31:00;2.20;;;1.13;;
1082;SDS011;530;51.448;7.238;2024-03-29T08:33:28;1.40;;;1.10;;
1082;SDS011;530;51.448;7.238;2024-03-29T08:35:55;3.37;;;1.47;;
1082;SDS011;530;51.448;7.238;2024-03-29T08:38:21;2.00;;;1.00;;
1082;SDS011;530;51.448;7.238;2024-03-29T08:40:47;1.43;;;0.97;;
1082;SDS011;530;51.448;7.238;2024-03-29T08:43:13;1.30;;;1.20;;
1082;SDS011;530;51.448;7.238;2024-03-29T08:45:48;0.80;;;0.80;;
1082;SDS011;530;51.448;7.238;2024-03-29T08:48:14;1.20;;;0.90;;
1082;SDS011;530;51.448;7.238;2024-03-29T08:50:39;2.10;;;1.10;;
1082;SDS011;530;51.448;7.238;2024-03-29T08:53:05;1.50;;;0.93;;
1082;SDS011;530;51.448;7.238;2024-03-29T08:55:32;0.83;;;0.70;;
1082;SDS011;530;51.448;7.238;2024-03-29T08:57:58;1.67;;;1.40;;
1082;SDS011;530;51.448;7.238;2024-03-29T09:00:27;1.10;;;1.00;;
1082;SDS011;530;51.448;7.238;2024-03-29T09:02:54;1.33;;;1.00;;
1082;SDS011;530;51.448;7.238;2024-03-29T09:05:23;1.00;;;0.80;;
1082;SDS011;530;51.448;7.238;2024-03-29T09:07:50;1.47;;;1.23;;
1082;SDS011;530;51.448;7.238;2024-03-29T09:10:16;1.70;;;1.00;;
1082;SDS011;530;51.448;7.238;2024-03-29T09:12:42;2.40;;;1.20;;
1082;SDS011;530;51.448;7.238;2024-03-29T09:15:07;2.03;;;1.10;;
1082;SDS011;530;51.448;7.238;2024-03-29T09:17:41;1.20;;;1.10;;
1082;SDS011;530;51.448;7.238;2024-03-29T09:20:10;0.60;;;0.60;;
1082;SDS011;530;51.448;7.238;2024-03-29T09:22:36;0.90;;;0.90;;
1082;SDS011;530;51.448;7.238;2024-03-29T09:25:03;1.30;;;0.97;;
1082;SDS011;530;51.448;7.238;2024-03-29T09:27:29;2.40;;;1.00;;
1082;SDS011;530;51.448;7.238;2024-03-29T09:29:58;1.20;;;1.00;;
1082;SDS011;530;51.448;7.238;2024-03-29T09:32:24;2.50;;;1.23;;
1082;SDS011;530;51.448;7.238;2024-03-29T09:34:50;2.33;;;1.17;;
1082;SDS011;530;51.448;7.238;2024-03-29T09:37:16;1.40;;;1.10;;
1082;SDS011;530;51.448;7.238;2024-03-29T09:39:43;1.20;;;1.10;;
1082;SDS011;530;51.448;7.238;2024-03-29T09:42:09;1.97;;;1.10;;
1082;SDS011;530;51.448;7.238;2024-03-29T09:44:41;1.90;;;0.97;;
1082;SDS011;530;51.448;7.238;2024-03-29T09:47:10;1.20;;;0.97;;
1082;SDS011;530;51.448;7.238;2024-03-29T09:49:39;1.43;;;1.00;;
1082;SDS011;530;51.448;7.238;2024-03-29T09:52:09;1.80;;;1.00;;
1082;SDS011;530;51.448;7.238;2024-03-29T09:54:35;1.37;;;0.90;;
1082;SDS011;530;51.448;7.238;2024-03-29T09:57:01;1.00;;;0.90;;
1082;SDS011;530;51.448;7.238;2024-03-29T09:59:27;1.37;;;0.90;;
1082;SDS011;530;51.448;7.238;2024-03-29T10:01:54;3.37;;;1.00;;
1082;SDS011;530;51.448;7.238;2024-03-29T10:04:21;1.20;;;0.97;;
1082;SDS011;530;51.448;7.238;2024-03-29T10:06:49;2.30;;;1.00;;
1082;SDS011;530;51.448;7.238;2024-03-29T10:09:19;3.90;;;1.17;;
1082;SDS011;530;51.448;7.238;2024-03-29T10:11:45;2.20;;;1.10;;
1082;SDS011;530;51.448;7.238;2024-03-29T10:14:12;2.43;;;0.90;;
1082;SDS011;530;51.448;7.238;2024-03-29T10:16:39;1.50;;;1.20;;
1082;SDS011;530;51.448;7.238;2024-03-29T10:19:06;2.43;;;0.93;;
1082;SDS011;530;51.448;7.238;2024-03-29T10:21:33;1.80;;;0.77;;
1082;SDS011;530;51.448;7.238;2024-03-29T10:24:10;1.13;;;0.90;;
1082;SDS011;530;51.448;7.238;2024-03-29T10:26:42;1.90;;;1.43;;
1082;SDS011;530;51.448;7.238;2024-03-29T10:29:08;1.43;;;0.83;;
1082;SDS011;530;51.448;7.238;2024-03-29T10:31:34;2.40;;;1.00;;
1082;SDS011;530;51.448;7.238;2024-03-29T10:34:04;2.27;;;1.20;;
1082;SDS011;530;51.448;7.238;2024-03-29T10:36:30;1.60;;;0.80;;
1082;SDS011;530;51.448;7.238;2024-03-29T10:39:01;1.30;;;0.80;;
1082;SDS011;530;51.448;7.238;2024-03-29T10:41:35;0.87;;;0.73;;
1082;SDS011;530;51.448;7.238;2024-03-29T10:44:02;1.03;;;0.80;;
1082;SDS011;530;51.448;7.238;2024-03-29T10:46:29;0.90;;;0.70;;
1082;SDS011;530;51.448;7.238;2024-03-29T10:48:56;0.90;;;0.60;;
1082;SDS011;530;51.448;7.238;2024-03-29T10:51:23;1.03;;;0.93;;
1082;SDS011;530;51.448;7.238;2024-03-29T10:53:48;1.10;;;0.77;;
1082;SDS011;530;51.448;7.238;2024-03-29T10:56:16;0.70;;;0.70;;
1082;SDS011;530;51.448;7.238;2024-03-29T10:58:43;1.03;;;0.60;;
1082;SDS011;530;51.448;7.238;2024-03-29T11:01:14;1.10;;;0.70;;
1082;SDS011;530;51.448;7.238;2024-03-29T11:03:44;1.20;;;1.00;;
1082;SDS011;530;51.448;7.238;2024-03-29T11:06:13;0.93;;;0.80;;
1082;SDS011;530;51.448;7.238;2024-03-29T11:08:42;0.67;;;0.63;;
1082;SDS011;530;51.448;7.238;2024-03-29T11:11:12;1.47;;;0.73;;
1082;SDS011;530;51.448;7.238;2024-03-29T11:13:47;1.47;;;0.70;;
1082;SDS011;530;51.448;7.238;2024-03-29T11:16:13;1.00;;;0.70;;
1082;SDS011;530;51.448;7.238;2024-03-29T11:18:41;0.80;;;0.70;;
1082;SDS011;530;51.448;7.238;2024-03-29T11:21:07;0.70;;;0.60;;
1082;SDS011;530;51.448;7.238;2024-03-29T11:23:36;0.60;;;0.60;;
1082;SDS011;530;51.448;7.238;2024-03-29T11:26:01;1.17;;;0.70;;
1082;SDS011;530;51.448;7.238;2024-03-29T11:28:32;1.10;;;0.80;;
1082;SDS011;530;51.448;7.238;2024-03-29T11:36:06;1.90;;;0.80;;
1082;SDS011;530;51.448;7.238;2024-03-29T11:38:39;0.97;;;0.70;;
1082;SDS011;530;51.448;7.238;2024-03-29T11:43:38;2.13;;;1.00;;
1082;SDS011;530;51.448;7.238;2024-03-29T11:46:08;1.10;;;0.80;;
1082;SDS011;530;51.448;7.238;2024-03-29T11:48:35;1.17;;;0.60;;
1082;SDS011;530;51.448;7.238;2024-03-29T11:51:02;1.50;;;1.00;;
1082;SDS011;530;51.448;7.238;2024-03-29T11:53:29;1.13;;;0.80;;
1082;SDS011;530;51.448;7.238;2024-03-29T11:55:59;0.93;;;0.83;;
1082;SDS011;530;51.448;7.238;2024-03-29T11:58:29;0.73;;;0.60;;
1082;SDS011;530;51.448;7.238;2024-03-29T12:00:56;1.17;;;0.90;;
1082;SDS011;530;51.448;7.238;2024-03-29T12:03:25;1.40;;;1.10;;
1082;SDS011;530;51.448;7.238;2024-03-29T12:05:52;0.87;;;0.70;;
1082;SDS011;530;51.448;7.238;2024-03-29T12:08:23;0.83;;;0.70;;
1082;SDS011;530;51.448;7.238;2024-03-29T12:10:50;1.77;;;0.80;;
1082;SDS011;530;51.448;7.238;2024-03-29T12:13:16;0.90;;;0.53;;
1082;SDS011;530;51.448;7.238;2024-03-29T12:15:42;1.47;;;0.60;;
1082;SDS011;530;51.448;7.238;2024-03-29T12:18:08;1.30;;;0.87;;
1082;SDS011;530;51.448;7.238;2024-03-29T12:20:35;0.80;;;0.70;;
1082;SDS011;530;51.448;7.238;2024-03-29T12:23:08;1.97;;;0.70;;
1082;SDS011;530;51.448;7.238;2024-03-29T12:25:35;2.70;;;0.90;;
1082;SDS011;530;51.448;7.238;2024-03-29T12:28:02;0.80;;;0.70;;
1082;SDS011;530;51.448;7.238;2024-03-29T12:30:28;1.07;;;0.60;;
1082;SDS011;530;51.448;7.238;2024-03-29T12:35:27;0.73;;;0.60;;
1082;SDS011;530;51.448;7.238;2024-03-29T12:37:54;1.23;;;0.70;;
1082;SDS011;530;51.448;7.238;2024-03-29T12:40:21;1.23;;;0.70;;
1082;SDS011;530;51.448;7.238;2024-03-29T12:42:49;1.00;;;0.70;;
1082;SDS011;530;51.448;7.238;2024-03-29T12:45:17;1.20;;;0.80;;
1082;SDS011;530;51.448;7.238;2024-03-29T12:47:44;1.23;;;0.77;;
1082;SDS011;530;51.448;7.238;2024-03-29T12:50:14;1.93;;;0.83;;
1082;SDS011;530;51.448;7.238;2024-03-29T12:52:54;1.90;;;0.77;;
1082;SDS011;530;51.448;7.238;2024-03-29T12:55:25;3.57;;;0.70;;
1082;SDS011;530;51.448;7.238;2024-03-29T12:57:56;1.73;;;0.70;;
1082;SDS011;530;51.448;7.238;2024-03-29T13:00:25;1.10;;;0.63;;
1082;SDS011;530;51.448;7.238;2024-03-29T13:02:51;1.23;;;0.60;;
1082;SDS011;530;51.448;7.238;2024-03-29T13:05:18;2.83;;;0.70;;
1082;SDS011;530;51.448;7.238;2024-03-29T13:07:43;1.13;;;0.60;;
1082;SDS011;530;51.448;7.238;2024-03-29T13:10:09;1.27;;;0.90;;
1082;SDS011;530;51.448;7.238;2024-03-29T13:12:40;2.00;;;0.80;;
1082;SDS011;530;51.448;7.238;2024-03-29T13:15:15;1.07;;;0.83;;
1082;SDS011;530;51.448;7.238;2024-03-29T13:17:42;2.87;;;1.10;;
1082;SDS011;530;51.448;7.238;2024-03-29T13:20:09;0.70;;;0.63;;
1082;SDS011;530;51.448;7.238;2024-03-29T13:22:36;0.77;;;0.70;;
1082;SDS011;530;51.448;7.238;2024-03-29T13:25:02;1.17;;;0.50;;
1082;SDS011;530;51.448;7.238;2024-03-29T13:27:30;1.20;;;0.60;;
1082;SDS011;530;51.448;7.238;2024-03-29T13:29:56;1.83;;;0.67;;
1082;SDS011;530;51.448;7.238;2024-03-29T13:32:22;0.90;;;0.70;;
1082;SDS011;530;51.448;7.238;2024-03-29T13:34:47;1.57;;;0.70;;
1082;SDS011;530;51.448;7.238;2024-03-29T13:37:13;1.50;;;0.77;;
1082;SDS011;530;51.448;7.238;2024-03-29T13:39:39;3.00;;;0.70;;
1082;SDS011;530;51.448;7.238;2024-03-29T13:42:05;2.83;;;0.93;;
1082;SDS011;530;51.448;7.238;2024-03-29T13:44:30;1.33;;;0.97;;
1082;SDS011;530;51.448;7.238;2024-03-29T13:46:59;0.87;;;0.60;;
1082;SDS011;530;51.448;7.238;2024-03-29T13:49:28;2.40;;;0.70;;
1082;SDS011;530;51.448;7.238;2024-03-29T13:51:55;1.03;;;0.80;;
1082;SDS011;530;51.448;7.238;2024-03-29T13:54:21;0.87;;;0.73;;
1082;SDS011;530;51.448;7.238;2024-03-29T13:56:49;1.17;;;0.70;;
1082;SDS011;530;51.448;7.238;2024-03-29T13:59:14;0.97;;;0.70;;
1082;SDS011;530;51.448;7.238;2024-03-29T14:01:40;1.10;;;0.70;;
1082;SDS011;530;51.448;7.238;2024-03-29T14:04:06;1.57;;;0.93;;
1082;SDS011;530;51.448;7.238;2024-03-29T14:06:32;1.00;;;0.63;;
1082;SDS011;530;51.448;7.238;2024-03-29T14:08:58;1.30;;;1.00;;
1082;SDS011;530;51.448;7.238;2024-03-29T14:11:23;0.70;;;0.70;;
1082;SDS011;530;51.448;7.238;2024-03-29T14:13:49;0.83;;;0.80;;
1082;SDS011;530;51.448;7.238;2024-03-29T14:16:21;1.20;;;0.80;;
1082;SDS011;530;51.448;7.238;2024-03-29T14:18:47;1.17;;;0.77;;
1082;SDS011;530;51.448;7.238;2024-03-29T14:21:13;1.30;;;1.10;;
1082;SDS011;530;51.448;7.238;2024-03-29T14:23:38;1.87;;;1.17;;
1082;SDS011;530;51.448;7.238;2024-03-29T14:26:05;1.80;;;1.50;;
1082;SDS011;530;51.448;7.238;2024-03-29T14:28:31;1.60;;;1.50;;
1082;SDS011;530;51.448;7.238;2024-03-29T14:30:56;1.30;;;1.20;;
1082;SDS011;530;51.448;7.238;2024-03-29T14:33:22;2.23;;;0.90;;
1082;SDS011;530;51.448;7.238;2024-03-29T14:35:48;1.03;;;0.90;;
1082;SDS011;530;51.448;7.238;2024-03-29T14:38:14;1.70;;;1.30;;
1082;SDS011;530;51.448;7.238;2024-03-29T14:40:41;1.30;;;1.10;;
1082;SDS011;530;51.448;7.238;2024-03-29T14:43:07;1.40;;;1.30;;
1082;SDS011;530;51.448;7.238;2024-03-29T14:45:33;1.40;;;0.90;;
1082;SDS011;530;51.448;7.238;2024-03-29T14:47:59;3.10;;;1.10;;
1082;SDS011;530;51.448;7.238;2024-03-29T14:50:24;1.93;;;1.73;;
1082;SDS011;530;51.448;7.238;2024-03-29T14:52:51;4.20;;;1.43;;
1082;SDS011;530;51.448;7.238;2024-03-29T14:55:17;1.40;;;1.07;;
1082;SDS011;530;51.448;7.238;2024-03-29T14:57:42;2.20;;;1.03;;
1082;SDS011;530;51.448;7.238;2024-03-29T15:00:08;1.77;;;0.80;;
1082;SDS011;530;51.448;7.238;2024-03-29T15:02:34;2.23;;;1.23;;
1082;SDS011;530;51.448;7.238;2024-03-29T15:05:00;1.43;;;1.10;;
1082;SDS011;530;51.448;7.238;2024-03-29T15:07:26;1.20;;;1.10;;
1082;SDS011;530;51.448;7.238;2024-03-29T15:09:52;2.93;;;1.17;;
1082;SDS011;530;51.448;7.238;2024-03-29T15:12:17;2.60;;;1.50;;
1082;SDS011;530;51.448;7.238;2024-03-29T15:14:43;1.67;;;1.57;;
1082;SDS011;530;51.448;7.238;2024-03-29T15:17:09;1.40;;;1.20;;
1082;SDS011;530;51.448;7.238;2024-03-29T15:19:34;1.70;;;1.30;;
1082;SDS011;530;51.448;7.238;2024-03-29T15:22:00;1.63;;;1.37;;
1082;SDS011;530;51.448;7.238;2024-03-29T15:24:26;1.60;;;1.30;;
1082;SDS011;530;51.448;7.238;2024-03-29T15:26:52;2.03;;;1.20;;
1082;SDS011;530;51.448;7.238;2024-03-29T15:29:23;1.63;;;1.30;;
1082;SDS011;530;51.448;7.238;2024-03-29T15:31:52;1.30;;;1.00;;
1082;SDS011;530;51.448;7.238;2024-03-29T15:34:19;1.20;;;1.00;;
1082;SDS011;530;51.448;7.238;2024-03-29T15:36:45;1.40;;;1.10;;
1082;SDS011;530;51.448;7.238;2024-03-29T15:39:11;1.20;;;1.10;;
1082;SDS011;530;51.448;7.238;2024-03-29T15:41:39;1.30;;;1.20;;